Marinette, WI (54143)

7:00 PM CDT on May 04, 2015 (GMT -0500)
Tyco Fire Protection | | Change Station
CLOSE
Current Station
Personal Weather Station
Location: Marinette, WI
Elevation: 617 ft
Nearby Weather Stations

Elev 617 ft 45.08 °N, 87.64 °W | Updated 2 seconds ago

Clear
Clear
59.4 °F
Feels Like 59.4 °F
N
5.0
Wind Variable Wind from ENE
Gusts 5.0 mph

Today
High -- | Low -- °F
--% Chance of Precip.
Yesterday
High -- | Low -- °F
Precip. -- in
5:35 AM 7:59 PM
Full, 99% visible
Pressure 30.19 in
Visibility 10.0 miles
Clouds Clear
Dew Point 40 °F
Humidity 48%
Rainfall 0.04 in
Snow Depth Not available.
UV 1 out of 12
Pollen 8.90 out of 12
Air Quality Not available.
Flu Activity Local Activity
METAR KMNM 042355Z AUTO 13008KT 10SM CLR 14/03 A3019 RMK AO1 10180 20140 52010

More Conditions Fewer Conditions

Pressure 30.19 in
Visibility 10.0 miles
Clouds Clear
Dew Point 40 °F
Humidity 48%
Rainfall 0.04 in
Snow Depth Not available.
UV 1 out of 12
Pollen 8.90 out of 12
Air Quality Not available.
Flu Activity Local Activity
METAR KMNM 042355Z AUTO 13008KT 10SM CLR 14/03 A3019 RMK AO1 10180 20140 52010

More Conditions Fewer Conditions

Nepal has a long way to go to dig out and rebuild from a devastating earthquake. We have teamed up with several charities and organizations to make contributing to the relief effort as easy as possible.
How you can help: Portlight Strategies | Red Cross

10-Day Weather Forecast

Almanac

Astronomy

May. 04, 2015 Rise Set
Actual Time
Civil Twilight
Nautical Twilight
Astronomical Twilight
Moon
Length of Visible Light
Length of Day
Tomorrow will be .
, % of the Moon is Illuminated

Today's Extremes

State Highs State Lows

Community

WunderPhotos

Upload Photos

1,818,739 photos uploaded!

WunderBlogs® & News

Nearby

Air Quality

  Air Quality AQ Index Pollutant
Not available.

Snow Depth

Station Depth Elevation

Earthquake Activity

City Distance Mag. Time & Date
Minimum magnitude displayed is 2.5.

Coastal Water Temperatures

Place Temperature

Stations

Nearby Weather Stations

Station Location Temp. Windchill Dew Point Humidity Wind Precip. Elev Updated Type